Time;durP1;ratioP1;P1;durP2;ratioP2;P2;SDS_P1;SDS_P2;PMS_P1;PMS_P2;Temp;Humidity;BMP_temperature;BMP_pressure;BME280_temperature;BME280_humidity;BME280_pressure;Samples;Min_cycle;Max_cycle;Signal;HPM_P1;HPM_P2
2022/10/08 00:01:18;;;;;;;5.47;2.03;;;9.30;99.90;;;;;;4824668;29;20234;-95
2022/10/08 00:03:46;;;;;;;8.43;2.40;;;9.30;99.90;;;;;;4807995;29;20196;-95
2022/10/08 00:06:23;;;;;;;5.93;2.28;;;9.30;99.90;;;;;;4823143;29;20197;-95
2022/10/08 00:08:52;;;;;;;5.43;2.03;;;9.40;99.90;;;;;;4824884;29;20191;-95
2022/10/08 00:11:24;;;;;;;6.10;2.28;;;9.30;99.90;;;;;;4824769;29;20189;-94
2022/10/08 00:13:51;;;;;;;6.13;2.08;;;9.40;99.90;;;;;;4824491;29;20178;-94
2022/10/08 00:16:23;;;;;;;10.85;2.50;;;9.40;99.90;;;;;;4824578;29;20598;-94
2022/10/08 00:18:51;;;;;;;5.25;2.17;;;9.40;99.90;;;;;;4791841;29;20194;-94
2022/10/08 00:21:20;;;;;;;4.22;2.15;;;9.40;99.90;;;;;;4824715;29;20269;-95
2022/10/08 00:23:47;;;;;;;5.60;2.20;;;9.40;99.90;;;;;;4827478;29;20263;-96
2022/10/08 00:26:16;;;;;;;5.03;1.95;;;9.50;99.90;;;;;;4809641;29;20218;-95
2022/10/08 00:28:44;;;;;;;5.78;2.17;;;9.40;99.90;;;;;;4793495;29;20186;-93
2022/10/08 00:31:13;;;;;;;6.10;2.15;;;9.40;99.90;;;;;;4820161;29;20200;-94
2022/10/08 00:33:39;;;;;;;4.43;1.88;;;9.30;99.90;;;;;;4827698;29;20703;-94
2022/10/08 00:36:08;;;;;;;6.05;2.10;;;9.40;99.90;;;;;;4819249;29;20189;-94
2022/10/08 00:38:35;;;;;;;7.90;2.60;;;9.40;99.90;;;;;;4827713;29;20186;-94
2022/10/08 00:41:04;;;;;;;9.10;2.13;;;9.40;99.90;;;;;;4811492;29;20182;-95
2022/10/08 00:43:46;;;;;;;5.40;2.08;;;9.40;99.90;;;;;;4827318;29;20763;-93
2022/10/08 00:46:29;;;;;;;8.00;2.30;;;9.40;99.90;;;;;;4811535;29;20230;-93
2022/10/08 00:49:14;;;;;;;7.10;2.17;;;9.40;99.90;;;;;;4827220;29;20657;-95
2022/10/08 00:51:43;;;;;;;3.17;1.80;;;9.50;99.90;;;;;;4827421;29;20578;-94
2022/10/08 00:54:11;;;;;;;3.13;1.60;;;9.50;99.90;;;;;;4827278;29;20215;-94
2022/10/08 00:56:38;;;;;;;4.97;1.92;;;9.40;99.90;;;;;;4811094;29;20206;-94
2022/10/08 00:59:06;;;;;;;9.40;2.05;;;9.40;99.90;;;;;;4827360;29;20215;-95
2022/10/08 01:01:32;;;;;;;3.88;2.10;;;9.40;99.90;;;;;;4810898;29;20178;-93
2022/10/08 01:04:03;;;;;;;4.25;2.10;;;9.40;99.90;;;;;;4827231;29;20190;-96
2022/10/08 01:06:53;;;;;;;6.28;1.75;;;9.40;99.90;;;;;;4820535;29;20250;-96
2022/10/08 01:09:34;;;;;;;3.97;1.70;;;9.30;99.90;;;;;;4819099;29;20239;-94
2022/10/08 01:12:16;;;;;;;6.18;1.85;;;9.30;99.90;;;;;;4826256;29;20292;-95
2022/10/08 01:14:53;;;;;;;5.88;2.10;;;9.40;99.90;;;;;;4825489;29;20188;-94
2022/10/08 01:17:55;;;;;;;4.05;1.80;;;9.30;99.90;;;;;;4825977;29;20225;-94
2022/10/08 01:21:04;;;;;;;4.85;1.83;;;9.40;99.90;;;;;;4815368;29;20197;-93
2022/10/08 01:23:57;;;;;;;6.70;1.77;;;9.40;99.90;;;;;;4793147;29;20300;-92
2022/10/08 01:26:56;;;;;;;8.02;1.83;;;9.40;99.90;;;;;;4808759;29;20232;-93
2022/10/08 01:29:44;;;;;;;6.30;2.42;;;9.40;99.90;;;;;;4808456;29;20190;-93
2022/10/08 01:32:18;;;;;;;4.43;1.75;;;9.40;99.90;;;;;;4792859;29;20198;-94
2022/10/08 01:34:49;;;;;;;4.28;1.85;;;9.30;99.90;;;;;;4797656;29;20189;-94
2022/10/08 01:37:23;;;;;;;4.47;1.80;;;9.30;99.90;;;;;;4825452;29;20217;-94
2022/10/08 01:39:52;;;;;;;6.32;1.73;;;9.30;99.90;;;;;;4826057;29;20185;-93
2022/10/08 01:42:22;;;;;;;6.10;2.03;;;9.30;99.90;;;;;;4825750;29;20186;-92
2022/10/08 01:44:53;;;;;;;4.73;1.97;;;9.30;99.90;;;;;;4825413;29;20258;-91
2022/10/08 01:47:25;;;;;;;4.28;2.00;;;9.40;99.90;;;;;;4825635;29;20182;-89
2022/10/08 01:49:59;;;;;;;6.72;1.92;;;9.40;99.90;;;;;;4825340;29;20192;-92
2022/10/08 01:52:36;;;;;;;4.97;2.00;;;9.50;99.90;;;;;;4826386;29;20189;-92
2022/10/08 01:55:05;;;;;;;9.65;2.17;;;9.40;99.90;;;;;;4826453;29;20185;-94
2022/10/08 01:57:33;;;;;;;3.70;1.77;;;9.50;99.90;;;;;;4810522;29;20221;-93
2022/10/08 02:00:09;;;;;;;5.57;2.10;;;9.50;99.90;;;;;;4814943;29;20190;-95
2022/10/08 02:02:35;;;;;;;4.03;1.70;;;9.50;99.90;;;;;;4826225;29;20233;-94
2022/10/08 02:05:02;;;;;;;7.85;2.20;;;9.50;99.90;;;;;;4823620;29;20178;-93
2022/10/08 02:07:31;;;;;;;4.63;1.85;;;9.50;99.90;;;;;;4824963;29;20193;-92
2022/10/08 02:10:07;;;;;;;5.03;1.98;;;9.50;99.90;;;;;;4825144;29;20507;-93
2022/10/08 02:12:34;;;;;;;7.03;2.03;;;9.50;99.90;;;;;;4825384;29;20186;-93
2022/10/08 02:15:03;;;;;;;3.10;1.67;;;9.50;99.90;;;;;;4824501;29;20189;-91
2022/10/08 02:17:38;;;;;;;7.28;2.20;;;9.60;99.90;;;;;;4825149;29;20217;-94
2022/10/08 02:20:29;;;;;;;6.35;1.70;;;9.60;99.90;;;;;;4813823;29;20656;-96
2022/10/08 02:23:16;;;;;;;5.70;2.05;;;9.60;99.90;;;;;;4825963;29;20225;-94
2022/10/08 02:25:53;;;;;;;5.53;2.17;;;9.60;99.90;;;;;;4826138;29;20204;-92
2022/10/08 02:28:28;;;;;;;4.45;2.08;;;9.60;99.90;;;;;;4825081;29;20186;-93
2022/10/08 02:31:19;;;;;;;7.30;1.73;;;9.60;99.90;;;;;;4824732;29;20233;-94
2022/10/08 02:34:14;;;;;;;7.63;2.08;;;9.60;99.90;;;;;;4815758;29;20204;-94
2022/10/08 02:36:46;;;;;;;4.20;1.88;;;9.50;99.90;;;;;;4825953;29;20230;-94
2022/10/08 02:39:14;;;;;;;7.00;2.10;;;9.50;99.90;;;;;;4809491;29;20226;-94
2022/10/08 02:41:45;;;;;;;6.90;2.25;;;9.60;99.90;;;;;;4809688;29;20557;-94
2022/10/08 02:44:16;;;;;;;4.22;1.80;;;9.60;99.90;;;;;;4809194;29;20178;-93
2022/10/08 02:46:45;;;;;;;9.00;2.42;;;9.60;99.90;;;;;;4809081;29;20182;-93
2022/10/08 02:49:34;;;;;;;10.57;2.30;;;9.60;99.90;;;;;;4825949;29;20166;-94
2022/10/08 02:52:01;;;;;;;7.32;2.22;;;9.60;99.90;;;;;;4825313;29;20250;-92
2022/10/08 02:54:31;;;;;;;6.97;2.40;;;9.60;99.90;;;;;;4809216;29;20194;-93
2022/10/08 02:57:03;;;;;;;6.07;2.00;;;9.60;99.90;;;;;;4809233;29;20305;-95
2022/10/08 02:59:30;;;;;;;5.68;2.50;;;9.60;99.90;;;;;;4808921;29;20205;-93
2022/10/08 03:02:04;;;;;;;8.05;2.08;;;9.60;99.90;;;;;;4808916;29;20185;-92
2022/10/08 03:04:37;;;;;;;4.38;2.10;;;9.60;99.90;;;;;;4809589;29;20196;-93
2022/10/08 03:07:05;;;;;;;6.85;2.25;;;9.60;99.90;;;;;;4824845;29;20186;-93
2022/10/08 03:09:38;;;;;;;7.95;2.30;;;9.60;99.90;;;;;;4809116;29;20205;-94
2022/10/08 03:12:05;;;;;;;9.32;1.90;;;9.60;99.90;;;;;;4825704;29;20174;-95
2022/10/08 03:14:38;;;;;;;5.47;2.22;;;9.70;99.90;;;;;;4825362;29;20216;-94
2022/10/08 03:17:09;;;;;;;9.75;2.30;;;9.70;99.90;;;;;;4825640;29;20252;-94
2022/10/08 03:19:35;;;;;;;7.72;2.20;;;9.70;99.90;;;;;;4809549;29;20626;-94
2022/10/08 03:22:02;;;;;;;5.15;2.30;;;9.70;99.90;;;;;;4811033;29;20223;-93
2022/10/08 03:24:27;;;;;;;6.95;1.83;;;9.70;99.90;;;;;;4807489;29;20186;-90
2022/10/08 03:26:53;;;;;;;5.35;2.17;;;9.70;99.90;;;;;;4807492;29;20186;-93
2022/10/08 03:29:19;;;;;;;6.05;2.53;;;9.70;99.90;;;;;;4807220;29;20174;-96
2022/10/08 03:31:48;;;;;;;7.63;2.10;;;9.70;99.90;;;;;;4805925;29;20193;-93
2022/10/08 03:34:14;;;;;;;8.48;2.10;;;9.70;99.90;;;;;;4805807;29;20183;-92
2022/10/08 03:36:40;;;;;;;7.38;2.20;;;9.70;99.90;;;;;;4805528;29;20227;-91
2022/10/08 03:39:05;;;;;;;7.20;2.13;;;9.70;99.90;;;;;;4806255;29;20270;-93
2022/10/08 03:41:31;;;;;;;8.93;2.10;;;9.80;99.90;;;;;;4806206;29;20665;-92
2022/10/08 03:43:58;;;;;;;8.43;2.20;;;9.80;99.90;;;;;;4806990;29;20216;-94
2022/10/08 03:46:24;;;;;;;5.93;1.90;;;9.80;99.90;;;;;;4806863;29;20222;-90
2022/10/08 03:48:50;;;;;;;6.83;2.33;;;9.80;99.90;;;;;;4805914;29;20179;-93
2022/10/08 03:51:17;;;;;;;8.82;2.13;;;9.80;99.90;;;;;;4806007;29;20187;-94
2022/10/08 03:53:43;;;;;;;5.95;1.95;;;9.70;99.90;;;;;;4806885;29;20179;-92
2022/10/08 03:56:14;;;;;;;3.75;2.10;;;9.80;99.90;;;;;;4806217;29;20186;-94
2022/10/08 03:58:40;;;;;;;6.97;2.13;;;9.80;99.90;;;;;;4810639;29;20615;-93
2022/10/08 04:01:10;;;;;;;9.85;2.20;;;9.80;99.90;;;;;;4810147;29;20190;-93
2022/10/08 04:03:36;;;;;;;6.20;1.98;;;9.80;99.90;;;;;;4808728;29;20313;-94
2022/10/08 04:06:02;;;;;;;8.75;1.90;;;9.80;99.90;;;;;;4808229;29;20598;-93
2022/10/08 04:08:28;;;;;;;5.47;2.03;;;9.80;99.90;;;;;;4810524;29;20171;-94
2022/10/08 04:10:54;;;;;;;6.82;2.50;;;9.80;99.90;;;;;;4810340;29;20194;-93
2022/10/08 04:13:20;;;;;;;13.15;2.17;;;9.70;99.90;;;;;;4809058;29;20191;-95
2022/10/08 04:15:47;;;;;;;6.18;1.90;;;9.80;99.90;;;;;;4809922;29;20193;-94
2022/10/08 04:18:13;;;;;;;4.53;1.90;;;9.80;99.90;;;;;;4809028;29;20219;-90
2022/10/08 04:20:41;;;;;;;5.85;1.92;;;9.80;99.90;;;;;;4808954;29;20193;-92
2022/10/08 04:23:08;;;;;;;8.50;2.03;;;9.80;99.90;;;;;;4821716;29;20331;-94
2022/10/08 04:25:35;;;;;;;11.48;2.70;;;9.90;99.90;;;;;;4811384;29;20186;-93
2022/10/08 04:28:02;;;;;;;7.03;1.98;;;9.90;99.90;;;;;;4827258;29;20262;-94
2022/10/08 04:30:29;;;;;;;7.82;2.03;;;9.90;99.90;;;;;;4827678;29;20189;-92
2022/10/08 04:32:55;;;;;;;5.05;2.10;;;9.90;99.90;;;;;;4810964;29;20541;-92
2022/10/08 04:35:20;;;;;;;10.05;1.88;;;9.90;99.90;;;;;;4811107;29;20641;-91
2022/10/08 04:37:46;;;;;;;9.18;1.92;;;9.90;99.90;;;;;;4811238;29;20241;-93
2022/10/08 04:40:12;;;;;;;5.65;1.98;;;9.90;99.90;;;;;;4827869;29;20514;-90
2022/10/08 04:42:37;;;;;;;8.07;2.33;;;10.00;99.90;;;;;;4811442;29;20200;-93
2022/10/08 04:45:03;;;;;;;6.00;2.00;;;10.00;99.90;;;;;;4810498;29;20277;-92
2022/10/08 04:47:29;;;;;;;8.70;2.38;;;10.00;99.90;;;;;;4811757;29;20316;-93
2022/10/08 04:49:55;;;;;;;12.85;2.35;;;10.00;99.90;;;;;;4811672;29;20193;-92
2022/10/08 04:52:21;;;;;;;5.82;1.77;;;10.00;99.90;;;;;;4811426;29;20185;-95
2022/10/08 04:54:46;;;;;;;6.85;1.77;;;10.00;99.90;;;;;;4827978;29;20512;-91
2022/10/08 04:57:13;;;;;;;7.10;2.20;;;10.10;99.90;;;;;;4811926;29;20214;-94
2022/10/08 04:59:39;;;;;;;8.68;1.90;;;10.00;99.90;;;;;;4827259;29;20579;-93
2022/10/08 05:02:04;;;;;;;7.82;1.92;;;10.10;99.90;;;;;;4810636;29;20221;-92
2022/10/08 05:04:30;;;;;;;5.50;1.98;;;10.10;99.90;;;;;;4811067;29;20272;-93
2022/10/08 05:06:56;;;;;;;7.28;1.85;;;10.10;99.90;;;;;;4810824;29;20281;-94
2022/10/08 05:09:22;;;;;;;5.57;1.60;;;10.20;99.90;;;;;;4810701;29;20186;-94
2022/10/08 05:11:49;;;;;;;11.15;2.13;;;10.30;99.90;;;;;;4826939;29;20254;-93
2022/10/08 05:14:15;;;;;;;7.57;1.92;;;10.30;99.90;;;;;;4811541;29;20239;-93
2022/10/08 05:16:41;;;;;;;9.43;2.03;;;10.40;99.90;;;;;;4826778;29;20317;-93
2022/10/08 05:19:07;;;;;;;15.13;2.10;;;10.50;99.90;;;;;;4827887;29;20178;-95
2022/10/08 05:21:33;;;;;;;8.38;2.03;;;10.50;99.90;;;;;;4827057;29;20201;-91
2022/10/08 05:24:05;;;;;;;6.68;2.38;;;10.60;99.90;;;;;;4827786;29;20190;-94
2022/10/08 05:26:34;;;;;;;7.50;1.85;;;10.60;99.90;;;;;;4811393;29;20687;-91
2022/10/08 05:29:00;;;;;;;9.15;1.92;;;10.70;99.90;;;;;;4811683;29;20200;-93
2022/10/08 05:31:27;;;;;;;12.35;1.90;;;10.70;99.90;;;;;;4811527;29;20182;-89
2022/10/08 05:33:54;;;;;;;10.00;2.38;;;10.80;99.90;;;;;;4812345;29;20199;-96
2022/10/08 05:36:22;;;;;;;15.43;2.38;;;10.80;99.90;;;;;;4811477;29;20269;-92
2022/10/08 05:38:48;;;;;;;6.18;1.77;;;10.80;99.90;;;;;;4828015;29;20204;-93
2022/10/08 05:41:20;;;;;;;9.40;2.05;;;10.90;99.90;;;;;;4821502;29;20193;-95
2022/10/08 05:43:47;;;;;;;9.15;1.85;;;10.90;99.90;;;;;;4828951;29;20602;-93
2022/10/08 05:46:14;;;;;;;9.73;1.85;;;10.90;99.90;;;;;;4827859;29;20178;-94
2022/10/08 05:48:41;;;;;;;8.05;1.90;;;10.90;99.90;;;;;;4828240;29;20190;-96
2022/10/08 05:51:15;;;;;;;6.43;1.60;;;11.00;99.90;;;;;;4826418;29;20696;-94
2022/10/08 05:53:45;;;;;;;13.20;2.08;;;10.90;99.90;;;;;;4827393;29;20255;-91
2022/10/08 05:56:13;;;;;;;9.70;1.90;;;11.00;99.90;;;;;;4826537;29;20170;-96
2022/10/08 05:58:40;;;;;;;9.68;1.90;;;11.00;99.90;;;;;;4818260;29;20321;-93
2022/10/08 06:01:18;;;;;;;5.80;2.05;;;11.00;99.90;;;;;;4828194;29;20202;-91
2022/10/08 06:03:51;;;;;;;5.30;1.65;;;11.00;99.90;;;;;;4826621;29;20169;-96
2022/10/08 06:06:17;;;;;;;6.05;1.83;;;11.00;99.90;;;;;;4809241;29;20178;-91
2022/10/08 06:08:44;;;;;;;11.13;2.35;;;10.90;99.90;;;;;;4812163;29;20205;-93
2022/10/08 06:11:10;;;;;;;11.50;1.80;;;10.90;99.90;;;;;;4827320;29;20182;-96
2022/10/08 06:13:36;;;;;;;8.38;2.03;;;11.00;99.90;;;;;;4811338;29;20189;-95
2022/10/08 06:16:06;;;;;;;6.53;2.13;;;10.90;99.90;;;;;;4829337;29;20204;-94
2022/10/08 06:18:38;;;;;;;7.72;2.05;;;10.90;99.90;;;;;;4829273;29;20221;-94
2022/10/08 06:21:11;;;;;;;9.50;1.50;;;11.00;99.90;;;;;;4810315;29;20580;-96
2022/10/08 06:23:38;;;;;;;12.20;2.10;;;10.90;99.90;;;;;;4812611;29;20271;-94
2022/10/08 06:26:06;;;;;;;7.22;2.03;;;10.90;99.90;;;;;;4810760;29;20212;-95
2022/10/08 06:28:35;;;;;;;8.98;1.90;;;10.90;99.90;;;;;;4834737;29;20188;-96
2022/10/08 06:31:01;;;;;;;6.80;1.70;;;10.90;99.90;;;;;;4819308;29;20186;-95
2022/10/08 06:33:27;;;;;;;5.82;1.75;;;10.90;99.90;;;;;;4812506;29;20188;-96
2022/10/08 06:35:53;;;;;;;6.63;1.80;;;10.90;99.90;;;;;;4825531;29;20269;-92
2022/10/08 06:38:19;;;;;;;8.60;2.13;;;10.90;99.90;;;;;;4826078;29;20253;-95
2022/10/08 06:40:46;;;;;;;14.25;1.98;;;10.90;99.90;;;;;;4827817;29;20268;-94
2022/10/08 06:43:14;;;;;;;8.13;2.00;;;10.90;99.90;;;;;;4821290;29;20221;-96
2022/10/08 06:45:41;;;;;;;10.98;2.63;;;10.90;99.90;;;;;;4822045;29;20190;-96
2022/10/08 06:48:12;;;;;;;7.15;1.80;;;10.90;99.90;;;;;;4816536;29;20204;-92
2022/10/08 06:50:47;;;;;;;7.10;1.95;;;10.90;99.90;;;;;;4826122;29;20205;-94
2022/10/08 06:53:13;;;;;;;11.43;2.00;;;11.00;99.90;;;;;;4827135;29;20682;-95
2022/10/08 06:55:39;;;;;;;10.13;2.38;;;11.00;99.90;;;;;;4827474;29;20181;-91
2022/10/08 06:58:05;;;;;;;6.57;1.70;;;11.00;99.90;;;;;;4825068;29;20221;-95
2022/10/08 07:00:32;;;;;;;11.73;2.30;;;11.00;99.90;;;;;;4826786;29;20180;-92
2022/10/08 07:02:57;;;;;;;10.95;2.13;;;11.00;99.90;;;;;;4826916;29;20257;-91
2022/10/08 07:05:23;;;;;;;9.25;2.00;;;11.00;99.90;;;;;;4826885;29;20352;-94
2022/10/08 07:07:53;;;;;;;8.68;2.20;;;11.00;99.90;;;;;;4810722;29;20186;-95
2022/10/08 07:10:19;;;;;;;12.77;2.70;;;11.00;99.90;;;;;;4827591;29;20182;-96
2022/10/08 07:12:44;;;;;;;6.45;2.17;;;11.10;99.90;;;;;;4809118;29;20318;-94
2022/10/08 07:15:10;;;;;;;14.25;2.53;;;11.10;99.90;;;;;;4809967;29;20182;-94
2022/10/08 07:17:36;;;;;;;7.85;2.53;;;11.10;99.90;;;;;;4822721;29;20226;-95
2022/10/08 07:20:02;;;;;;;8.65;1.92;;;11.10;99.90;;;;;;4826258;29;20180;-95
2022/10/08 07:22:27;;;;;;;11.73;2.30;;;11.10;99.90;;;;;;4828346;29;20230;-96
2022/10/08 07:24:53;;;;;;;9.20;2.78;;;11.20;99.90;;;;;;4812997;29;20182;-95
2022/10/08 07:27:19;;;;;;;14.32;2.90;;;11.20;99.90;;;;;;4826504;29;20196;-95
2022/10/08 07:29:45;;;;;;;13.73;2.55;;;11.20;99.90;;;;;;4818296;29;20182;-96
2022/10/08 07:32:11;;;;;;;13.15;2.58;;;11.20;99.90;;;;;;4813788;29;20210;-95
2022/10/08 07:34:37;;;;;;;7.90;2.65;;;11.20;99.90;;;;;;4832803;29;20193;-95
2022/10/08 07:37:02;;;;;;;10.07;3.08;;;11.30;99.90;;;;;;4829965;29;20216;-96
2022/10/08 07:39:28;;;;;;;12.75;2.80;;;11.40;99.90;;;;;;4820167;29;20202;-95
2022/10/08 07:41:54;;;;;;;13.80;3.17;;;11.50;99.90;;;;;;4812719;29;20602;-91
2022/10/08 07:44:20;;;;;;;11.05;3.33;;;11.60;99.90;;;;;;4829314;29;20196;-93
2022/10/08 07:46:48;;;;;;;8.48;2.58;;;11.70;99.90;;;;;;4828045;29;20181;-90
2022/10/08 07:49:15;;;;;;;9.82;2.95;;;11.70;99.90;;;;;;4828203;29;20197;-93
2022/10/08 07:51:41;;;;;;;11.20;3.15;;;11.70;99.90;;;;;;4812956;29;20190;-94
2022/10/08 07:54:10;;;;;;;7.10;2.50;;;11.80;99.90;;;;;;4813003;29;20190;-89
2022/10/08 07:56:36;;;;;;;10.77;2.75;;;11.90;99.90;;;;;;4828480;29;20231;-95
2022/10/08 07:59:04;;;;;;;11.13;3.05;;;11.90;99.90;;;;;;4828816;29;20198;-94
2022/10/08 08:01:30;;;;;;;7.25;3.40;;;12.00;99.90;;;;;;4813518;29;20205;-95
2022/10/08 08:03:59;;;;;;;9.20;2.80;;;12.00;99.90;;;;;;4812183;29;20588;-93
2022/10/08 08:06:26;;;;;;;10.80;2.88;;;12.00;99.90;;;;;;4837870;29;20175;-95
2022/10/08 08:08:53;;;;;;;11.43;3.70;;;12.00;99.90;;;;;;4813759;29;20321;-93
2022/10/08 08:11:21;;;;;;;9.93;3.05;;;12.00;99.90;;;;;;4829069;29;20194;-96
2022/10/08 08:13:47;;;;;;;6.38;2.80;;;12.00;99.90;;;;;;4829860;29;20285;-95
2022/10/08 08:16:16;;;;;;;9.90;3.03;;;12.00;99.90;;;;;;4840406;29;20636;-93
2022/10/08 08:18:44;;;;;;;9.32;3.03;;;12.00;99.90;;;;;;4821568;29;20617;-96
2022/10/08 08:21:17;;;;;;;7.70;3.15;;;12.10;99.90;;;;;;4829587;29;20190;-94
2022/10/08 08:23:46;;;;;;;9.82;3.10;;;12.20;99.90;;;;;;4817770;29;20367;-89
2022/10/08 08:26:27;;;;;;;10.45;3.00;;;12.30;99.90;;;;;;4828618;29;20193;-87
2022/10/08 08:29:15;;;;;;;9.60;3.53;;;12.30;99.90;;;;;;4818800;29;20301;-85
2022/10/08 08:31:45;;;;;;;12.15;3.63;;;12.30;99.90;;;;;;4819891;29;20552;-96
2022/10/08 08:34:18;;;;;;;10.45;3.47;;;12.30;99.90;;;;;;4821751;29;20202;-84
2022/10/08 08:36:47;;;;;;;11.18;3.75;;;12.30;99.90;;;;;;4807621;29;20304;-84
2022/10/08 08:39:24;;;;;;;8.70;3.15;;;12.50;99.90;;;;;;4827278;29;20285;-86
2022/10/08 08:41:49;;;;;;;13.98;3.58;;;12.50;99.90;;;;;;4824435;29;20186;-85
2022/10/08 08:44:15;;;;;;;8.77;3.53;;;12.50;99.90;;;;;;4830689;29;20213;-93
2022/10/08 08:46:45;;;;;;;10.93;3.53;;;12.50;99.90;;;;;;4830630;29;20206;-96
2022/10/08 08:49:19;;;;;;;8.75;3.72;;;12.50;99.90;;;;;;4815862;29;20186;-95
2022/10/08 08:51:44;;;;;;;8.75;3.70;;;12.50;99.90;;;;;;4816119;29;20701;-94
2022/10/08 08:54:10;;;;;;;14.50;3.42;;;12.50;99.90;;;;;;4814947;29;20213;-94
2022/10/08 08:56:36;;;;;;;15.82;4.15;;;12.40;99.90;;;;;;4814415;29;20277;-95
2022/10/08 08:59:28;;;;;;;8.68;3.33;;;12.40;99.90;;;;;;4816848;29;20193;-96
2022/10/08 09:01:59;;;;;;;9.70;3.50;;;12.40;99.90;;;;;;4830074;29;20205;-95
2022/10/08 09:04:43;;;;;;;8.80;3.65;;;12.40;99.90;;;;;;4815403;29;20189;-94
2022/10/08 09:07:14;;;;;;;9.70;4.05;;;12.50;99.90;;;;;;4816373;29;20198;-96
2022/10/08 09:09:52;;;;;;;7.72;3.13;;;12.50;99.90;;;;;;4817412;29;20182;-93
2022/10/08 09:12:26;;;;;;;8.75;3.38;;;12.60;99.90;;;;;;4818049;29;20541;-95
2022/10/08 09:14:58;;;;;;;11.38;3.35;;;12.60;99.90;;;;;;4815425;29;20170;-96
2022/10/08 09:17:31;;;;;;;7.80;3.38;;;12.60;99.90;;;;;;4816699;29;20245;-94
2022/10/08 09:19:57;;;;;;;11.10;3.95;;;12.60;99.90;;;;;;4823028;29;20162;-96
2022/10/08 09:22:25;;;;;;;8.02;3.42;;;12.70;99.90;;;;;;4816871;29;20237;-95
2022/10/08 09:25:06;;;;;;;9.70;3.58;;;12.90;99.90;;;;;;4813719;29;20667;-96
2022/10/08 09:27:49;;;;;;;9.10;3.38;;;13.10;99.90;;;;;;4813900;29;20182;-94
2022/10/08 09:30:23;;;;;;;7.38;3.30;;;13.30;99.90;;;;;;4814888;29;20185;-92
2022/10/08 09:32:54;;;;;;;12.55;3.70;;;13.60;99.90;;;;;;4828981;29;20200;-95
2022/10/08 09:35:21;;;;;;;10.35;3.60;;;13.70;99.90;;;;;;4813266;29;20188;-94
2022/10/08 09:37:48;;;;;;;8.95;2.90;;;13.80;99.90;;;;;;4833514;29;20201;-96
2022/10/08 09:40:24;;;;;;;13.38;3.67;;;13.80;99.90;;;;;;4851702;24;20263;-95
2022/10/08 09:43:08;;;;;;;8.93;3.40;;;13.70;99.90;;;;;;4850275;29;20261;-96
2022/10/08 09:45:37;;;;;;;10.38;3.45;;;13.70;99.90;;;;;;4848421;29;20177;-93
2022/10/08 09:48:25;;;;;;;9.68;3.17;;;13.80;99.90;;;;;;4829989;29;20211;-95
2022/10/08 09:51:11;;;;;;;10.82;3.33;;;13.90;99.90;;;;;;4831795;29;20185;-91
2022/10/08 09:53:53;;;;;;;6.75;2.92;;;14.00;99.90;;;;;;4831230;29;20220;-94
2022/10/08 09:56:26;;;;;;;9.07;2.65;;;14.10;99.90;;;;;;4847066;29;20169;-96
2022/10/08 09:59:01;;;;;;;8.93;3.13;;;14.20;99.90;;;;;;4831702;29;20193;-93
2022/10/08 10:01:32;;;;;;;7.28;3.20;;;14.30;99.90;;;;;;4848407;29;20173;-96
2022/10/08 10:04:01;;;;;;;10.35;2.80;;;14.30;99.90;;;;;;4830818;29;20296;-95
2022/10/08 10:06:33;;;;;;;7.88;2.47;;;14.20;99.90;;;;;;4847631;29;20227;-94
2022/10/08 10:09:23;;;;;;;7.40;2.47;;;14.20;99.90;;;;;;4847644;29;20189;-94
2022/10/08 10:12:11;;;;;;;6.22;2.33;;;14.20;99.90;;;;;;4848563;29;20199;-94
2022/10/08 10:14:48;;;;;;;9.95;2.70;;;14.20;99.90;;;;;;4838032;29;20189;-93
2022/10/08 10:17:17;;;;;;;6.88;2.58;;;14.30;99.90;;;;;;4831399;29;20217;-94
2022/10/08 10:19:54;;;;;;;9.15;2.50;;;14.50;99.90;;;;;;4832303;29;20643;-96
2022/10/08 10:22:46;;;;;;;8.07;2.20;;;14.60;99.90;;;;;;4828655;29;20279;-93
2022/10/08 10:25:20;;;;;;;14.48;2.88;;;14.40;99.90;;;;;;4830445;29;20292;-93
2022/10/08 10:28:09;;;;;;;9.85;2.17;;;14.40;99.90;;;;;;4849089;29;20180;-96
2022/10/08 10:30:56;;;;;;;8.93;2.58;;;14.30;99.90;;;;;;4830092;29;20173;-96
2022/10/08 10:33:27;;;;;;;9.73;2.08;;;14.40;99.90;;;;;;4845914;29;20228;-94
2022/10/08 10:35:57;;;;;;;13.25;2.15;;;14.60;99.90;;;;;;4831387;29;20181;-94
2022/10/08 10:38:26;;;;;;;8.50;1.70;;;14.70;99.90;;;;;;4843471;29;20228;-91
2022/10/08 10:41:36;;;;;;;5.70;1.73;;;14.70;99.90;;;;;;4843712;29;20295;-94
2022/10/08 10:44:14;;;;;;;9.15;2.08;;;14.80;99.90;;;;;;4833283;29;20238;-92
2022/10/08 10:46:50;;;;;;;6.70;1.92;;;14.80;99.90;;;;;;4811882;29;20186;-91
2022/10/08 10:49:42;;;;;;;5.20;1.90;;;14.80;99.90;;;;;;4813846;29;20185;-93
2022/10/08 10:52:08;;;;;;;7.50;2.30;;;14.80;99.90;;;;;;4808148;29;20194;-92
2022/10/08 10:54:58;;;;;;;9.70;1.83;;;14.90;99.90;;;;;;4834600;29;20232;-94
2022/10/08 10:57:23;;;;;;;10.05;2.30;;;14.90;99.90;;;;;;4815335;29;20214;-96
2022/10/08 11:00:21;;;;;;;3.75;1.70;;;14.80;99.90;;;;;;4819269;29;20204;-96
2022/10/08 11:03:19;;;;;;;4.40;1.63;;;14.70;99.90;;;;;;4822470;29;20693;-93
2022/10/08 11:06:20;;;;;;;9.13;2.25;;;14.60;99.90;;;;;;4825977;29;20188;-96
2022/10/08 11:08:59;;;;;;;7.90;2.13;;;14.40;99.90;;;;;;4831158;29;20173;-96
2022/10/08 11:11:51;;;;;;;5.55;2.30;;;14.20;99.90;;;;;;4831680;29;20230;-96
2022/10/08 11:14:28;;;;;;;6.43;2.03;;;14.00;99.90;;;;;;4813461;29;20182;-93
2022/10/08 11:17:08;;;;;;;7.43;2.47;;;13.90;99.90;;;;;;4848552;29;20209;-96
2022/10/08 11:20:04;;;;;;;10.23;2.38;;;13.90;99.90;;;;;;4851562;29;20205;-96
2022/10/08 11:23:01;;;;;;;7.22;2.28;;;14.00;99.90;;;;;;4850567;29;20181;-96
2022/10/08 11:25:39;;;;;;;5.45;2.03;;;14.20;99.90;;;;;;4849449;29;20178;-94
2022/10/08 11:28:32;;;;;;;8.43;2.30;;;14.40;99.90;;;;;;4849969;29;20192;-96
2022/10/08 11:31:48;;;;;;;5.82;1.90;;;14.60;99.90;;;;;;4848869;29;20219;-94
2022/10/08 11:34:34;;;;;;;10.60;1.85;;;14.50;99.90;;;;;;4818077;29;20653;-95
2022/10/08 11:37:38;;;;;;;6.75;2.00;;;14.40;99.90;;;;;;4856703;29;20235;-96
2022/10/08 11:40:13;;;;;;;4.05;1.67;;;14.40;99.90;;;;;;4827532;29;20340;-96
2022/10/08 11:43:05;;;;;;;8.73;1.90;;;14.50;99.90;;;;;;4862994;29;20527;-95
2022/10/08 11:45:34;;;;;;;6.15;1.75;;;14.60;99.90;;;;;;4870335;29;20172;-94
2022/10/08 11:48:33;;;;;;;8.85;2.15;;;14.70;99.90;;;;;;4852399;29;20181;-95
2022/10/08 11:51:22;;;;;;;8.82;2.35;;;14.70;99.90;;;;;;4867850;29;20257;-96
2022/10/08 11:54:09;;;;;;;6.13;1.67;;;14.80;99.90;;;;;;4841099;29;20197;-95
2022/10/08 11:56:47;;;;;;;7.00;1.70;;;15.20;99.90;;;;;;4852434;29;20184;-96
2022/10/08 11:59:51;;;;;;;6.03;1.35;;;15.40;99.90;;;;;;4853251;29;20185;-96
2022/10/08 12:02:36;;;;;;;5.35;1.50;;;15.40;99.90;;;;;;4778592;30;20239;-95
2022/10/08 12:05:30;;;;;;;9.65;1.92;;;15.30;99.90;;;;;;4844516;29;20212;-92
2022/10/08 12:07:58;;;;;;;5.00;1.70;;;15.10;99.90;;;;;;4814717;29;20235;-93
2022/10/08 12:10:52;;;;;;;6.10;1.52;;;15.00;99.90;;;;;;4844447;29;20186;-96
2022/10/08 12:13:27;;;;;;;8.13;1.52;;;15.20;99.90;;;;;;4828104;29;20197;-95
2022/10/08 12:15:54;;;;;;;3.65;1.17;;;15.10;99.90;;;;;;4829735;29;20648;-95
2022/10/08 12:18:22;;;;;;;6.63;1.67;;;15.00;99.90;;;;;;4826601;24;20604;-90
2022/10/08 12:21:16;;;;;;;6.47;1.77;;;14.90;99.90;;;;;;4805385;29;20183;-91
2022/10/08 12:23:43;;;;;;;7.85;2.10;;;14.70;99.90;;;;;;4805360;29;20184;-91
2022/10/08 12:26:12;;;;;;;5.50;1.67;;;14.70;99.90;;;;;;4789901;29;20203;-91
2022/10/08 12:28:42;;;;;;;9.48;2.40;;;14.60;99.90;;;;;;4789878;30;20187;-96
2022/10/08 12:31:22;;;;;;;6.32;1.58;;;14.60;99.90;;;;;;4805958;29;20187;-92
2022/10/08 12:34:02;;;;;;;2.95;0.93;;;14.20;99.90;;;;;;4794323;30;20667;-91
2022/10/08 12:36:40;;;;;;;4.53;0.90;;;13.60;99.90;;;;;;4793749;29;20219;-91
2022/10/08 12:39:17;;;;;;;2.50;1.05;;;13.00;99.90;;;;;;4794785;29;20224;-91
2022/10/08 12:42:00;;;;;;;3.92;1.10;;;12.60;99.90;;;;;;4793889;29;20671;-91
2022/10/08 12:44:45;;;;;;;1.50;0.70;;;12.30;99.90;;;;;;4793496;29;20226;-89
2022/10/08 12:47:37;;;;;;;3.08;0.90;;;12.20;99.90;;;;;;4793559;30;20199;-90
2022/10/08 12:50:12;;;;;;;2.30;0.95;;;12.10;99.90;;;;;;4794494;30;20176;-89
2022/10/08 12:52:38;;;;;;;3.97;1.00;;;12.10;99.90;;;;;;4793320;30;20186;-90
2022/10/08 12:55:13;;;;;;;2.58;0.80;;;12.00;99.90;;;;;;4793487;29;20215;-90
2022/10/08 12:57:42;;;;;;;1.63;0.70;;;12.10;99.90;;;;;;4792464;30;20222;-89
2022/10/08 13:00:20;;;;;;;4.32;1.00;;;12.10;99.90;;;;;;4792787;30;20195;-93
2022/10/08 13:03:03;;;;;;;5.43;1.10;;;12.00;99.90;;;;;;4791062;30;20175;-88
2022/10/08 13:05:31;;;;;;;2.15;0.82;;;12.00;99.90;;;;;;4789966;29;20211;-90
2022/10/08 13:07:57;;;;;;;2.45;0.80;;;12.10;99.90;;;;;;4792930;30;20178;-90
2022/10/08 13:10:28;;;;;;;3.80;0.80;;;12.10;99.90;;;;;;4794526;30;20167;-90
2022/10/08 13:13:05;;;;;;;1.27;0.60;;;12.10;99.90;;;;;;4793149;30;20188;-91
2022/10/08 13:15:33;;;;;;;3.50;0.68;;;12.10;99.90;;;;;;4792381;29;20207;-91
2022/10/08 13:18:10;;;;;;;2.75;0.73;;;12.10;99.90;;;;;;4790481;29;20243;-91